sensor_id;sensor_type;location;lat;lon;timestamp;P1;durP1;ratioP1;P2;durP2;ratioP2
11893;SDS011;6006;49.696;8.662;2022-08-19T00:01:14;16.05;;;13.38;;
11893;SDS011;6006;49.696;8.662;2022-08-19T00:03:41;14.80;;;13.38;;
11893;SDS011;6006;49.696;8.662;2022-08-19T00:06:08;15.70;;;14.07;;
11893;SDS011;6006;49.696;8.662;2022-08-19T00:08:36;15.90;;;13.27;;
11893;SDS011;6006;49.696;8.662;2022-08-19T00:11:03;15.20;;;13.60;;
11893;SDS011;6006;49.696;8.662;2022-08-19T00:13:31;14.23;;;12.75;;
11893;SDS011;6006;49.696;8.662;2022-08-19T00:15:58;16.08;;;14.35;;
11893;SDS011;6006;49.696;8.662;2022-08-19T00:18:25;16.45;;;13.57;;
11893;SDS011;6006;49.696;8.662;2022-08-19T00:20:52;14.95;;;13.45;;
11893;SDS011;6006;49.696;8.662;2022-08-19T00:23:19;15.13;;;13.52;;
11893;SDS011;6006;49.696;8.662;2022-08-19T00:25:47;14.75;;;13.25;;
11893;SDS011;6006;49.696;8.662;2022-08-19T00:28:14;15.95;;;13.75;;
11893;SDS011;6006;49.696;8.662;2022-08-19T00:30:41;16.10;;;14.25;;
11893;SDS011;6006;49.696;8.662;2022-08-19T00:33:08;14.65;;;13.23;;
11893;SDS011;6006;49.696;8.662;2022-08-19T00:35:35;15.95;;;14.25;;
11893;SDS011;6006;49.696;8.662;2022-08-19T00:38:03;16.67;;;14.60;;
11893;SDS011;6006;49.696;8.662;2022-08-19T00:40:32;14.88;;;13.32;;
11893;SDS011;6006;49.696;8.662;2022-08-19T00:43:00;14.93;;;13.35;;
11893;SDS011;6006;49.696;8.662;2022-08-19T00:45:28;16.20;;;13.68;;
11893;SDS011;6006;49.696;8.662;2022-08-19T00:47:57;15.48;;;13.82;;
11893;SDS011;6006;49.696;8.662;2022-08-19T00:50:27;16.42;;;14.50;;
11893;SDS011;6006;49.696;8.662;2022-08-19T00:52:55;16.38;;;14.55;;
11893;SDS011;6006;49.696;8.662;2022-08-19T00:55:24;15.48;;;13.05;;
11893;SDS011;6006;49.696;8.662;2022-08-19T00:57:55;14.55;;;13.15;;
11893;SDS011;6006;49.696;8.662;2022-08-19T01:00:26;15.98;;;13.68;;
11893;SDS011;6006;49.696;8.662;2022-08-19T01:02:54;15.95;;;14.27;;
11893;SDS011;6006;49.696;8.662;2022-08-19T01:05:22;15.98;;;13.23;;
11893;SDS011;6006;49.696;8.662;2022-08-19T01:07:54;16.08;;;14.38;;
11893;SDS011;6006;49.696;8.662;2022-08-19T01:10:23;18.45;;;14.77;;
11893;SDS011;6006;49.696;8.662;2022-08-19T01:12:52;14.73;;;13.15;;
11893;SDS011;6006;49.696;8.662;2022-08-19T01:15:21;14.82;;;13.30;;
11893;SDS011;6006;49.696;8.662;2022-08-19T01:17:53;15.10;;;12.48;;
11893;SDS011;6006;49.696;8.662;2022-08-19T01:20:22;16.23;;;12.38;;
11893;SDS011;6006;49.696;8.662;2022-08-19T01:22:52;15.15;;;13.55;;
11893;SDS011;6006;49.696;8.662;2022-08-19T01:25:22;15.88;;;13.77;;
11893;SDS011;6006;49.696;8.662;2022-08-19T01:27:51;14.38;;;12.90;;
11893;SDS011;6006;49.696;8.662;2022-08-19T01:30:20;16.23;;;14.32;;
11893;SDS011;6006;49.696;8.662;2022-08-19T01:32:49;14.98;;;13.40;;
11893;SDS011;6006;49.696;8.662;2022-08-19T01:35:16;15.48;;;13.88;;
11893;SDS011;6006;49.696;8.662;2022-08-19T01:37:44;15.68;;;13.57;;
11893;SDS011;6006;49.696;8.662;2022-08-19T01:40:14;15.45;;;13.43;;
11893;SDS011;6006;49.696;8.662;2022-08-19T01:42:41;15.80;;;13.70;;
11893;SDS011;6006;49.696;8.662;2022-08-19T01:45:08;14.40;;;12.73;;
11893;SDS011;6006;49.696;8.662;2022-08-19T01:47:36;15.07;;;13.13;;
11893;SDS011;6006;49.696;8.662;2022-08-19T01:50:03;14.02;;;12.52;;
11893;SDS011;6006;49.696;8.662;2022-08-19T01:52:31;14.15;;;12.35;;
11893;SDS011;6006;49.696;8.662;2022-08-19T01:55:00;15.10;;;13.38;;
11893;SDS011;6006;49.696;8.662;2022-08-19T01:57:28;14.80;;;12.73;;
11893;SDS011;6006;49.696;8.662;2022-08-19T01:59:55;15.45;;;13.95;;
11893;SDS011;6006;49.696;8.662;2022-08-19T02:02:22;14.82;;;13.23;;
11893;SDS011;6006;49.696;8.662;2022-08-19T02:04:50;14.35;;;12.63;;
11893;SDS011;6006;49.696;8.662;2022-08-19T02:07:18;14.10;;;12.60;;
11893;SDS011;6006;49.696;8.662;2022-08-19T02:09:46;13.98;;;12.25;;
11893;SDS011;6006;49.696;8.662;2022-08-19T02:12:13;15.15;;;12.93;;
11893;SDS011;6006;49.696;8.662;2022-08-19T02:14:42;14.95;;;13.35;;
11893;SDS011;6006;49.696;8.662;2022-08-19T02:17:09;16.00;;;13.15;;
11893;SDS011;6006;49.696;8.662;2022-08-19T02:19:36;15.10;;;13.18;;
11893;SDS011;6006;49.696;8.662;2022-08-19T02:22:03;14.50;;;13.00;;
11893;SDS011;6006;49.696;8.662;2022-08-19T02:24:30;13.88;;;12.45;;
11893;SDS011;6006;49.696;8.662;2022-08-19T02:26:57;15.55;;;12.40;;
11893;SDS011;6006;49.696;8.662;2022-08-19T02:29:24;14.10;;;12.60;;
11893;SDS011;6006;49.696;8.662;2022-08-19T02:31:53;14.32;;;12.82;;
11893;SDS011;6006;49.696;8.662;2022-08-19T02:34:19;14.82;;;13.10;;
11893;SDS011;6006;49.696;8.662;2022-08-19T02:36:46;15.40;;;12.70;;
11893;SDS011;6006;49.696;8.662;2022-08-19T02:39:13;15.00;;;13.40;;
11893;SDS011;6006;49.696;8.662;2022-08-19T02:41:39;17.70;;;12.90;;
11893;SDS011;6006;49.696;8.662;2022-08-19T02:44:06;15.05;;;13.45;;
11893;SDS011;6006;49.696;8.662;2022-08-19T02:46:34;16.33;;;14.63;;
11893;SDS011;6006;49.696;8.662;2022-08-19T02:49:03;16.00;;;14.13;;
11893;SDS011;6006;49.696;8.662;2022-08-19T02:51:34;17.05;;;14.98;;
11893;SDS011;6006;49.696;8.662;2022-08-19T02:54:03;15.13;;;13.30;;
11893;SDS011;6006;49.696;8.662;2022-08-19T02:56:30;14.23;;;12.70;;
11893;SDS011;6006;49.696;8.662;2022-08-19T02:58:57;14.38;;;12.85;;
11893;SDS011;6006;49.696;8.662;2022-08-19T03:01:26;14.15;;;12.65;;
11893;SDS011;6006;49.696;8.662;2022-08-19T03:03:56;14.82;;;13.00;;
11893;SDS011;6006;49.696;8.662;2022-08-19T03:06:27;15.02;;;12.38;;
11893;SDS011;6006;49.696;8.662;2022-08-19T03:08:54;14.48;;;12.45;;
11893;SDS011;6006;49.696;8.662;2022-08-19T03:11:23;14.68;;;13.18;;
11893;SDS011;6006;49.696;8.662;2022-08-19T03:13:52;16.10;;;12.75;;
11893;SDS011;6006;49.696;8.662;2022-08-19T03:16:20;13.93;;;12.48;;
11893;SDS011;6006;49.696;8.662;2022-08-19T03:18:48;17.27;;;13.70;;
11893;SDS011;6006;49.696;8.662;2022-08-19T03:21:16;14.07;;;12.20;;
11893;SDS011;6006;49.696;8.662;2022-08-19T03:23:45;18.38;;;13.43;;
11893;SDS011;6006;49.696;8.662;2022-08-19T03:26:12;14.85;;;13.32;;
11893;SDS011;6006;49.696;8.662;2022-08-19T03:28:40;16.45;;;13.82;;
11893;SDS011;6006;49.696;8.662;2022-08-19T03:31:11;14.60;;;13.05;;
11893;SDS011;6006;49.696;8.662;2022-08-19T03:33:40;16.70;;;13.20;;
11893;SDS011;6006;49.696;8.662;2022-08-19T03:36:08;14.95;;;12.25;;
11893;SDS011;6006;49.696;8.662;2022-08-19T03:38:37;16.65;;;13.63;;
11893;SDS011;6006;49.696;8.662;2022-08-19T03:41:08;15.32;;;13.38;;
11893;SDS011;6006;49.696;8.662;2022-08-19T03:43:36;17.35;;;14.77;;
11893;SDS011;6006;49.696;8.662;2022-08-19T03:46:08;15.82;;;13.68;;
11893;SDS011;6006;49.696;8.662;2022-08-19T03:48:37;17.27;;;14.10;;
11893;SDS011;6006;49.696;8.662;2022-08-19T03:51:05;16.45;;;13.20;;
11893;SDS011;6006;49.696;8.662;2022-08-19T03:53:33;15.18;;;13.15;;
11893;SDS011;6006;49.696;8.662;2022-08-19T03:56:01;15.35;;;12.88;;
11893;SDS011;6006;49.696;8.662;2022-08-19T03:58:30;15.30;;;13.38;;
11893;SDS011;6006;49.696;8.662;2022-08-19T04:00:56;16.45;;;14.20;;
11893;SDS011;6006;49.696;8.662;2022-08-19T04:03:24;17.48;;;14.15;;
11893;SDS011;6006;49.696;8.662;2022-08-19T04:05:52;15.60;;;13.38;;
11893;SDS011;6006;49.696;8.662;2022-08-19T04:08:19;14.90;;;13.30;;
11893;SDS011;6006;49.696;8.662;2022-08-19T04:10:47;15.80;;;13.18;;
11893;SDS011;6006;49.696;8.662;2022-08-19T04:13:16;15.50;;;13.18;;
11893;SDS011;6006;49.696;8.662;2022-08-19T04:15:45;16.35;;;14.38;;
11893;SDS011;6006;49.696;8.662;2022-08-19T04:18:12;16.63;;;13.23;;
11893;SDS011;6006;49.696;8.662;2022-08-19T04:20:40;16.45;;;13.93;;
11893;SDS011;6006;49.696;8.662;2022-08-19T04:23:09;16.77;;;13.30;;
11893;SDS011;6006;49.696;8.662;2022-08-19T04:25:37;14.65;;;13.02;;
11893;SDS011;6006;49.696;8.662;2022-08-19T04:28:05;17.25;;;13.77;;
11893;SDS011;6006;49.696;8.662;2022-08-19T04:30:37;15.35;;;13.75;;
11893;SDS011;6006;49.696;8.662;2022-08-19T04:33:06;17.35;;;14.65;;
11893;SDS011;6006;49.696;8.662;2022-08-19T04:35:37;16.42;;;14.05;;
11893;SDS011;6006;49.696;8.662;2022-08-19T04:38:05;14.77;;;13.27;;
11893;SDS011;6006;49.696;8.662;2022-08-19T04:40:33;15.98;;;14.05;;
11893;SDS011;6006;49.696;8.662;2022-08-19T04:43:17;15.15;;;13.55;;
11893;SDS011;6006;49.696;8.662;2022-08-19T04:45:44;14.23;;;12.70;;
11893;SDS011;6006;49.696;8.662;2022-08-19T04:48:13;16.45;;;14.13;;
11893;SDS011;6006;49.696;8.662;2022-08-19T04:50:41;16.33;;;13.75;;
11893;SDS011;6006;49.696;8.662;2022-08-19T04:53:09;18.25;;;13.43;;
11893;SDS011;6006;49.696;8.662;2022-08-19T04:55:38;17.27;;;13.40;;
11893;SDS011;6006;49.696;8.662;2022-08-19T04:58:06;14.65;;;13.02;;
11893;SDS011;6006;49.696;8.662;2022-08-19T05:00:33;14.90;;;13.32;;
11893;SDS011;6006;49.696;8.662;2022-08-19T05:03:00;13.93;;;12.05;;
11893;SDS011;6006;49.696;8.662;2022-08-19T05:05:28;16.33;;;14.20;;
11893;SDS011;6006;49.696;8.662;2022-08-19T05:07:56;15.02;;;12.68;;
11893;SDS011;6006;49.696;8.662;2022-08-19T05:10:23;14.27;;;12.68;;
11893;SDS011;6006;49.696;8.662;2022-08-19T05:12:50;14.13;;;12.63;;
11893;SDS011;6006;49.696;8.662;2022-08-19T05:15:17;13.98;;;11.93;;
11893;SDS011;6006;49.696;8.662;2022-08-19T05:17:44;15.20;;;12.63;;
11893;SDS011;6006;49.696;8.662;2022-08-19T05:20:25;14.40;;;12.50;;
11893;SDS011;6006;49.696;8.662;2022-08-19T05:23:11;14.85;;;12.27;;
11893;SDS011;6006;49.696;8.662;2022-08-19T05:25:40;19.70;;;13.85;;
11893;SDS011;6006;49.696;8.662;2022-08-19T05:28:07;16.20;;;12.65;;
11893;SDS011;6006;49.696;8.662;2022-08-19T05:30:34;18.65;;;14.20;;
11893;SDS011;6006;49.696;8.662;2022-08-19T05:33:01;14.65;;;11.80;;
11893;SDS011;6006;49.696;8.662;2022-08-19T05:35:28;12.88;;;11.57;;
11893;SDS011;6006;49.696;8.662;2022-08-19T05:37:55;14.73;;;12.85;;
11893;SDS011;6006;49.696;8.662;2022-08-19T05:40:24;12.40;;;11.13;;
11893;SDS011;6006;49.696;8.662;2022-08-19T05:42:50;18.20;;;12.15;;
11893;SDS011;6006;49.696;8.662;2022-08-19T05:45:18;15.23;;;12.98;;
11893;SDS011;6006;49.696;8.662;2022-08-19T05:47:46;14.13;;;12.65;;
11893;SDS011;6006;49.696;8.662;2022-08-19T05:50:13;13.95;;;12.30;;
11893;SDS011;6006;49.696;8.662;2022-08-19T05:52:42;13.63;;;12.02;;
11893;SDS011;6006;49.696;8.662;2022-08-19T05:55:10;13.70;;;12.40;;
11893;SDS011;6006;49.696;8.662;2022-08-19T05:57:38;13.73;;;12.13;;
11893;SDS011;6006;49.696;8.662;2022-08-19T06:00:06;14.82;;;12.65;;
11893;SDS011;6006;49.696;8.662;2022-08-19T06:02:35;13.48;;;11.82;;
11893;SDS011;6006;49.696;8.662;2022-08-19T06:05:02;13.05;;;11.65;;
11893;SDS011;6006;49.696;8.662;2022-08-19T06:07:34;14.30;;;12.38;;
11893;SDS011;6006;49.696;8.662;2022-08-19T06:10:01;13.75;;;11.95;;
11893;SDS011;6006;49.696;8.662;2022-08-19T06:12:28;16.35;;;12.77;;
11893;SDS011;6006;49.696;8.662;2022-08-19T06:15:00;12.18;;;10.85;;
11893;SDS011;6006;49.696;8.662;2022-08-19T06:17:30;13.57;;;12.18;;
11893;SDS011;6006;49.696;8.662;2022-08-19T06:19:59;13.82;;;11.73;;
11893;SDS011;6006;49.696;8.662;2022-08-19T06:22:27;13.48;;;11.55;;
11893;SDS011;6006;49.696;8.662;2022-08-19T06:24:54;13.48;;;11.57;;
11893;SDS011;6006;49.696;8.662;2022-08-19T06:27:21;12.10;;;10.80;;
11893;SDS011;6006;49.696;8.662;2022-08-19T06:29:49;12.40;;;11.20;;
11893;SDS011;6006;49.696;8.662;2022-08-19T06:32:17;11.48;;;10.27;;
11893;SDS011;6006;49.696;8.662;2022-08-19T06:34:45;11.45;;;10.25;;
11893;SDS011;6006;49.696;8.662;2022-08-19T06:37:12;10.48;;;9.48;;
11893;SDS011;6006;49.696;8.662;2022-08-19T06:39:40;11.65;;;10.45;;
11893;SDS011;6006;49.696;8.662;2022-08-19T06:42:09;13.40;;;11.35;;
11893;SDS011;6006;49.696;8.662;2022-08-19T06:44:41;11.05;;;9.93;;
11893;SDS011;6006;49.696;8.662;2022-08-19T06:47:10;12.48;;;11.18;;
11893;SDS011;6006;49.696;8.662;2022-08-19T06:49:39;12.35;;;11.05;;
11893;SDS011;6006;49.696;8.662;2022-08-19T06:52:07;11.35;;;10.25;;
11893;SDS011;6006;49.696;8.662;2022-08-19T06:54:36;13.10;;;10.70;;
11893;SDS011;6006;49.696;8.662;2022-08-19T06:57:04;10.85;;;9.85;;
11893;SDS011;6006;49.696;8.662;2022-08-19T06:59:32;10.88;;;9.50;;
11893;SDS011;6006;49.696;8.662;2022-08-19T07:01:59;11.30;;;9.55;;
11893;SDS011;6006;49.696;8.662;2022-08-19T07:04:30;10.88;;;9.70;;
11893;SDS011;6006;49.696;8.662;2022-08-19T07:07:00;12.05;;;10.32;;
11893;SDS011;6006;49.696;8.662;2022-08-19T07:09:31;10.95;;;9.90;;
11893;SDS011;6006;49.696;8.662;2022-08-19T07:11:58;11.50;;;10.30;;
11893;SDS011;6006;49.696;8.662;2022-08-19T07:14:26;10.27;;;9.10;;
11893;SDS011;6006;49.696;8.662;2022-08-19T07:16:54;11.15;;;10.00;;
11893;SDS011;6006;49.696;8.662;2022-08-19T07:19:23;11.32;;;10.13;;
11893;SDS011;6006;49.696;8.662;2022-08-19T07:21:52;12.45;;;10.65;;
11893;SDS011;6006;49.696;8.662;2022-08-19T07:24:21;11.85;;;10.65;;
11893;SDS011;6006;49.696;8.662;2022-08-19T07:26:50;12.18;;;10.45;;
11893;SDS011;6006;49.696;8.662;2022-08-19T07:29:18;12.27;;;10.32;;
11893;SDS011;6006;49.696;8.662;2022-08-19T07:31:48;10.88;;;9.70;;
11893;SDS011;6006;49.696;8.662;2022-08-19T07:34:15;10.57;;;9.57;;
11893;SDS011;6006;49.696;8.662;2022-08-19T07:36:43;12.63;;;10.35;;
11893;SDS011;6006;49.696;8.662;2022-08-19T07:39:12;10.85;;;9.10;;
11893;SDS011;6006;49.696;8.662;2022-08-19T07:41:41;10.55;;;9.55;;
11893;SDS011;6006;49.696;8.662;2022-08-19T07:44:09;10.93;;;9.00;;
11893;SDS011;6006;49.696;8.662;2022-08-19T07:46:38;9.95;;;9.05;;
11893;SDS011;6006;49.696;8.662;2022-08-19T07:49:09;8.90;;;8.00;;
11893;SDS011;6006;49.696;8.662;2022-08-19T07:51:44;9.30;;;8.45;;
11893;SDS011;6006;49.696;8.662;2022-08-19T07:54:11;10.68;;;7.55;;
11893;SDS011;6006;49.696;8.662;2022-08-19T07:56:38;7.95;;;7.25;;
11893;SDS011;6006;49.696;8.662;2022-08-19T07:59:10;9.73;;;8.23;;
11893;SDS011;6006;49.696;8.662;2022-08-19T08:01:37;8.80;;;7.88;;
11893;SDS011;6006;49.696;8.662;2022-08-19T08:04:05;10.60;;;8.35;;
11893;SDS011;6006;49.696;8.662;2022-08-19T08:06:58;9.80;;;7.97;;
11893;SDS011;6006;49.696;8.662;2022-08-19T08:09:43;10.05;;;8.30;;
11893;SDS011;6006;49.696;8.662;2022-08-19T08:12:14;8.02;;;7.32;;
11893;SDS011;6006;49.696;8.662;2022-08-19T08:14:43;9.20;;;7.72;;
11893;SDS011;6006;49.696;8.662;2022-08-19T08:17:12;10.73;;;8.32;;
11893;SDS011;6006;49.696;8.662;2022-08-19T08:19:40;8.90;;;8.10;;
11893;SDS011;6006;49.696;8.662;2022-08-19T08:22:07;8.10;;;7.32;;
11893;SDS011;6006;49.696;8.662;2022-08-19T08:24:56;7.38;;;6.45;;
11893;SDS011;6006;49.696;8.662;2022-08-19T08:27:29;9.50;;;6.75;;
11893;SDS011;6006;49.696;8.662;2022-08-19T08:29:56;7.60;;;6.80;;
11893;SDS011;6006;49.696;8.662;2022-08-19T08:32:23;8.07;;;6.28;;
11893;SDS011;6006;49.696;8.662;2022-08-19T08:34:50;6.88;;;6.28;;
11893;SDS011;6006;49.696;8.662;2022-08-19T08:37:19;7.53;;;6.57;;
11893;SDS011;6006;49.696;8.662;2022-08-19T08:39:47;8.93;;;7.13;;
11893;SDS011;6006;49.696;8.662;2022-08-19T08:42:16;6.65;;;5.88;;
11893;SDS011;6006;49.696;8.662;2022-08-19T08:44:55;5.65;;;4.93;;
11893;SDS011;6006;49.696;8.662;2022-08-19T08:47:26;5.82;;;4.55;;
11893;SDS011;6006;49.696;8.662;2022-08-19T08:50:02;5.57;;;5.15;;
11893;SDS011;6006;49.696;8.662;2022-08-19T08:52:32;6.03;;;4.97;;
11893;SDS011;6006;49.696;8.662;2022-08-19T08:55:03;5.70;;;5.28;;
11893;SDS011;6006;49.696;8.662;2022-08-19T08:57:35;5.63;;;5.13;;
11893;SDS011;6006;49.696;8.662;2022-08-19T09:00:08;5.93;;;5.43;;
11893;SDS011;6006;49.696;8.662;2022-08-19T09:02:38;6.55;;;5.95;;
11893;SDS011;6006;49.696;8.662;2022-08-19T09:05:05;7.85;;;5.95;;
11893;SDS011;6006;49.696;8.662;2022-08-19T09:07:39;9.23;;;5.90;;
11893;SDS011;6006;49.696;8.662;2022-08-19T09:10:15;6.30;;;5.70;;
11893;SDS011;6006;49.696;8.662;2022-08-19T09:12:52;6.05;;;5.50;;
11893;SDS011;6006;49.696;8.662;2022-08-19T09:15:28;5.00;;;4.60;;
11893;SDS011;6006;49.696;8.662;2022-08-19T09:17:59;6.85;;;6.07;;
11893;SDS011;6006;49.696;8.662;2022-08-19T09:20:28;7.70;;;5.32;;
11893;SDS011;6006;49.696;8.662;2022-08-19T09:22:56;4.85;;;4.55;;
11893;SDS011;6006;49.696;8.662;2022-08-19T09:25:23;6.05;;;5.45;;
11893;SDS011;6006;49.696;8.662;2022-08-19T09:27:51;6.20;;;5.60;;
11893;SDS011;6006;49.696;8.662;2022-08-19T09:30:22;6.10;;;5.45;;
11893;SDS011;6006;49.696;8.662;2022-08-19T09:32:53;5.25;;;4.78;;
11893;SDS011;6006;49.696;8.662;2022-08-19T09:35:21;5.70;;;4.88;;
11893;SDS011;6006;49.696;8.662;2022-08-19T09:37:49;4.65;;;4.25;;
11893;SDS011;6006;49.696;8.662;2022-08-19T09:40:17;4.72;;;3.78;;
11893;SDS011;6006;49.696;8.662;2022-08-19T09:42:45;5.20;;;4.75;;
11893;SDS011;6006;49.696;8.662;2022-08-19T09:45:13;4.72;;;4.10;;
11893;SDS011;6006;49.696;8.662;2022-08-19T09:47:40;4.72;;;4.18;;
11893;SDS011;6006;49.696;8.662;2022-08-19T09:50:10;4.15;;;3.80;;
11893;SDS011;6006;49.696;8.662;2022-08-19T09:52:38;4.65;;;4.25;;
11893;SDS011;6006;49.696;8.662;2022-08-19T09:55:07;5.57;;;4.47;;
11893;SDS011;6006;49.696;8.662;2022-08-19T09:57:36;4.78;;;4.38;;
11893;SDS011;6006;49.696;8.662;2022-08-19T10:00:04;4.60;;;4.10;;
11893;SDS011;6006;49.696;8.662;2022-08-19T10:02:33;4.72;;;4.35;;
11893;SDS011;6006;49.696;8.662;2022-08-19T10:05:00;4.30;;;3.88;;
11893;SDS011;6006;49.696;8.662;2022-08-19T10:07:46;4.75;;;4.35;;
11893;SDS011;6006;49.696;8.662;2022-08-19T10:10:13;4.43;;;4.13;;
11893;SDS011;6006;49.696;8.662;2022-08-19T10:12:40;5.18;;;4.68;;
11893;SDS011;6006;49.696;8.662;2022-08-19T10:15:09;4.82;;;4.35;;
11893;SDS011;6006;49.696;8.662;2022-08-19T10:17:37;3.92;;;3.60;;
11893;SDS011;6006;49.696;8.662;2022-08-19T10:20:04;4.97;;;4.60;;
11893;SDS011;6006;49.696;8.662;2022-08-19T10:22:31;4.93;;;4.47;;
11893;SDS011;6006;49.696;8.662;2022-08-19T10:25:02;5.05;;;4.45;;
11893;SDS011;6006;49.696;8.662;2022-08-19T10:27:30;5.85;;;4.55;;
11893;SDS011;6006;49.696;8.662;2022-08-19T10:29:57;4.75;;;4.30;;
11893;SDS011;6006;49.696;8.662;2022-08-19T10:32:24;5.25;;;4.70;;
11893;SDS011;6006;49.696;8.662;2022-08-19T10:34:51;5.40;;;4.90;;
11893;SDS011;6006;49.696;8.662;2022-08-19T10:37:18;4.90;;;4.55;;
11893;SDS011;6006;49.696;8.662;2022-08-19T10:39:46;5.00;;;4.40;;
11893;SDS011;6006;49.696;8.662;2022-08-19T10:42:15;6.78;;;4.80;;
11893;SDS011;6006;49.696;8.662;2022-08-19T10:44:43;5.60;;;5.10;;
11893;SDS011;6006;49.696;8.662;2022-08-19T10:47:11;6.50;;;4.70;;
11893;SDS011;6006;49.696;8.662;2022-08-19T10:49:38;6.35;;;4.70;;
11893;SDS011;6006;49.696;8.662;2022-08-19T10:52:19;5.68;;;5.28;;
11893;SDS011;6006;49.696;8.662;2022-08-19T10:55:02;5.28;;;4.82;;
11893;SDS011;6006;49.696;8.662;2022-08-19T10:57:49;6.53;;;5.40;;
11893;SDS011;6006;49.696;8.662;2022-08-19T11:00:17;6.25;;;5.72;;
11893;SDS011;6006;49.696;8.662;2022-08-19T11:02:45;6.18;;;5.68;;
11893;SDS011;6006;49.696;8.662;2022-08-19T11:05:12;5.80;;;5.10;;
11893;SDS011;6006;49.696;8.662;2022-08-19T11:07:39;5.97;;;5.47;;
11893;SDS011;6006;49.696;8.662;2022-08-19T11:10:07;7.45;;;6.13;;
11893;SDS011;6006;49.696;8.662;2022-08-19T11:12:38;6.28;;;5.68;;
11893;SDS011;6006;49.696;8.662;2022-08-19T11:15:08;6.00;;;5.50;;
11893;SDS011;6006;49.696;8.662;2022-08-19T11:17:36;5.32;;;4.93;;
11893;SDS011;6006;49.696;8.662;2022-08-19T11:20:07;6.68;;;6.07;;
11893;SDS011;6006;49.696;8.662;2022-08-19T11:22:35;6.00;;;5.47;;
11893;SDS011;6006;49.696;8.662;2022-08-19T11:25:02;5.55;;;5.05;;
11893;SDS011;6006;49.696;8.662;2022-08-19T11:27:30;6.28;;;5.78;;
11893;SDS011;6006;49.696;8.662;2022-08-19T11:29:56;7.95;;;7.15;;
11893;SDS011;6006;49.696;8.662;2022-08-19T11:32:25;7.40;;;6.68;;
11893;SDS011;6006;49.696;8.662;2022-08-19T11:34:52;6.47;;;5.95;;
11893;SDS011;6006;49.696;8.662;2022-08-19T11:37:19;5.80;;;5.30;;
11893;SDS011;6006;49.696;8.662;2022-08-19T11:39:46;5.82;;;5.38;;
11893;SDS011;6006;49.696;8.662;2022-08-19T11:42:13;5.82;;;5.25;;
11893;SDS011;6006;49.696;8.662;2022-08-19T11:44:57;6.28;;;5.65;;
11893;SDS011;6006;49.696;8.662;2022-08-19T11:47:26;6.95;;;6.45;;
11893;SDS011;6006;49.696;8.662;2022-08-19T11:49:53;6.22;;;5.82;;
11893;SDS011;6006;49.696;8.662;2022-08-19T11:52:20;8.02;;;7.22;;
11893;SDS011;6006;49.696;8.662;2022-08-19T11:54:47;6.43;;;5.93;;
11893;SDS011;6006;49.696;8.662;2022-08-19T11:57:14;7.70;;;6.70;;
11893;SDS011;6006;49.696;8.662;2022-08-19T11:59:47;7.30;;;6.82;;
11893;SDS011;6006;49.696;8.662;2022-08-19T12:02:15;7.75;;;7.15;;
11893;SDS011;6006;49.696;8.662;2022-08-19T12:04:43;7.93;;;7.32;;
11893;SDS011;6006;49.696;8.662;2022-08-19T12:07:10;7.90;;;7.20;;
11893;SDS011;6006;49.696;8.662;2022-08-19T12:09:38;8.52;;;7.80;;
11893;SDS011;6006;49.696;8.662;2022-08-19T12:12:05;7.85;;;7.18;;
11893;SDS011;6006;49.696;8.662;2022-08-19T12:14:32;6.63;;;6.13;;
11893;SDS011;6006;49.696;8.662;2022-08-19T12:17:00;7.25;;;6.57;;
11893;SDS011;6006;49.696;8.662;2022-08-19T12:19:29;7.10;;;6.60;;
11893;SDS011;6006;49.696;8.662;2022-08-19T12:21:59;8.98;;;7.07;;
11893;SDS011;6006;49.696;8.662;2022-08-19T12:24:30;8.07;;;7.20;;
11893;SDS011;6006;49.696;8.662;2022-08-19T12:26:57;8.70;;;8.00;;
11893;SDS011;6006;49.696;8.662;2022-08-19T12:29:26;8.80;;;8.00;;
11893;SDS011;6006;49.696;8.662;2022-08-19T12:31:54;9.50;;;8.80;;
11893;SDS011;6006;49.696;8.662;2022-08-19T12:34:26;7.78;;;7.18;;
11893;SDS011;6006;49.696;8.662;2022-08-19T12:36:55;7.18;;;6.47;;
11893;SDS011;6006;49.696;8.662;2022-08-19T12:39:24;6.80;;;6.30;;
11893;SDS011;6006;49.696;8.662;2022-08-19T12:41:51;6.63;;;6.05;;
11893;SDS011;6006;49.696;8.662;2022-08-19T12:44:18;6.63;;;6.03;;
11893;SDS011;6006;49.696;8.662;2022-08-19T12:46:46;6.63;;;6.03;;
11893;SDS011;6006;49.696;8.662;2022-08-19T12:49:14;7.00;;;6.50;;
11893;SDS011;6006;49.696;8.662;2022-08-19T12:51:41;7.45;;;6.65;;
11893;SDS011;6006;49.696;8.662;2022-08-19T12:54:08;7.25;;;6.55;;
11893;SDS011;6006;49.696;8.662;2022-08-19T12:56:37;6.00;;;5.32;;
11893;SDS011;6006;49.696;8.662;2022-08-19T12:59:04;5.55;;;5.15;;
11893;SDS011;6006;49.696;8.662;2022-08-19T13:01:32;8.52;;;6.07;;
11893;SDS011;6006;49.696;8.662;2022-08-19T13:03:59;5.47;;;5.10;;
11893;SDS011;6006;49.696;8.662;2022-08-19T13:06:26;5.68;;;5.25;;
11893;SDS011;6006;49.696;8.662;2022-08-19T13:08:53;5.00;;;4.70;;
11893;SDS011;6006;49.696;8.662;2022-08-19T13:11:22;5.00;;;4.60;;
11893;SDS011;6006;49.696;8.662;2022-08-19T13:13:51;4.43;;;4.13;;
11893;SDS011;6006;49.696;8.662;2022-08-19T13:16:20;4.93;;;4.50;;
11893;SDS011;6006;49.696;8.662;2022-08-19T13:18:48;4.75;;;4.35;;
11893;SDS011;6006;49.696;8.662;2022-08-19T13:21:17;4.20;;;3.90;;
11893;SDS011;6006;49.696;8.662;2022-08-19T13:23:46;3.60;;;3.40;;
11893;SDS011;6006;49.696;8.662;2022-08-19T13:26:13;4.57;;;4.28;;
11893;SDS011;6006;49.696;8.662;2022-08-19T13:28:40;4.50;;;4.20;;
11893;SDS011;6006;49.696;8.662;2022-08-19T13:31:27;4.28;;;3.97;;
11893;SDS011;6006;49.696;8.662;2022-08-19T13:34:13;4.30;;;3.67;;
11893;SDS011;6006;49.696;8.662;2022-08-19T13:36:41;4.22;;;3.85;;
11893;SDS011;6006;49.696;8.662;2022-08-19T13:39:09;4.28;;;3.92;;
11893;SDS011;6006;49.696;8.662;2022-08-19T13:41:36;4.18;;;3.88;;
11893;SDS011;6006;49.696;8.662;2022-08-19T13:44:03;4.95;;;4.57;;
11893;SDS011;6006;49.696;8.662;2022-08-19T13:46:33;4.55;;;4.18;;
11893;SDS011;6006;49.696;8.662;2022-08-19T13:49:00;3.63;;;3.42;;
11893;SDS011;6006;49.696;8.662;2022-08-19T13:51:26;4.10;;;3.78;;
11893;SDS011;6006;49.696;8.662;2022-08-19T13:53:53;3.90;;;3.60;;
11893;SDS011;6006;49.696;8.662;2022-08-19T13:56:22;3.70;;;3.50;;
11893;SDS011;6006;49.696;8.662;2022-08-19T13:58:52;4.05;;;3.83;;
11893;SDS011;6006;49.696;8.662;2022-08-19T14:01:20;4.65;;;4.25;;
11893;SDS011;6006;49.696;8.662;2022-08-19T14:03:49;4.55;;;4.18;;
11893;SDS011;6006;49.696;8.662;2022-08-19T14:06:16;4.00;;;3.70;;
11893;SDS011;6006;49.696;8.662;2022-08-19T14:08:43;3.80;;;3.58;;
11893;SDS011;6006;49.696;8.662;2022-08-19T14:11:10;5.30;;;4.28;;
11893;SDS011;6006;49.696;8.662;2022-08-19T14:13:37;4.35;;;4.03;;
11893;SDS011;6006;49.696;8.662;2022-08-19T14:16:06;4.40;;;4.00;;
11893;SDS011;6006;49.696;8.662;2022-08-19T14:18:37;4.50;;;4.20;;
11893;SDS011;6006;49.696;8.662;2022-08-19T14:21:06;3.80;;;3.60;;
11893;SDS011;6006;49.696;8.662;2022-08-19T14:23:33;4.30;;;4.00;;
11893;SDS011;6006;49.696;8.662;2022-08-19T14:26:04;4.68;;;4.32;;
11893;SDS011;6006;49.696;8.662;2022-08-19T14:28:33;6.00;;;4.35;;
11893;SDS011;6006;49.696;8.662;2022-08-19T14:31:00;7.03;;;4.05;;
11893;SDS011;6006;49.696;8.662;2022-08-19T14:33:27;4.38;;;4.00;;
11893;SDS011;6006;49.696;8.662;2022-08-19T14:35:53;4.68;;;4.30;;
11893;SDS011;6006;49.696;8.662;2022-08-19T14:38:22;4.88;;;4.53;;
11893;SDS011;6006;49.696;8.662;2022-08-19T14:40:48;6.00;;;5.40;;
11893;SDS011;6006;49.696;8.662;2022-08-19T14:43:17;5.93;;;5.43;;
11893;SDS011;6006;49.696;8.662;2022-08-19T14:45:44;5.20;;;4.90;;
11893;SDS011;6006;49.696;8.662;2022-08-19T14:48:11;4.95;;;4.65;;
11893;SDS011;6006;49.696;8.662;2022-08-19T14:50:38;5.20;;;4.80;;
11893;SDS011;6006;49.696;8.662;2022-08-19T14:53:05;4.70;;;4.30;;
11893;SDS011;6006;49.696;8.662;2022-08-19T14:55:35;4.80;;;4.40;;
11893;SDS011;6006;49.696;8.662;2022-08-19T14:58:02;5.07;;;4.78;;